sensor_id;sensor_type;location;lat;lon;timestamp;P1;durP1;ratioP1;P2;durP2;ratioP2
5951;SDS011;3001;42.622;23.194;2023-03-13T00:00:54;7.23;;;6.13;;
5951;SDS011;3001;42.622;23.194;2023-03-13T00:03:22;7.27;;;6.00;;
5951;SDS011;3001;42.622;23.194;2023-03-13T00:05:50;9.77;;;6.13;;
5951;SDS011;3001;42.622;23.194;2023-03-13T00:08:21;6.37;;;5.77;;
5951;SDS011;3001;42.622;23.194;2023-03-13T00:10:47;7.17;;;5.73;;
5951;SDS011;3001;42.622;23.194;2023-03-13T00:13:14;6.10;;;5.57;;
5951;SDS011;3001;42.622;23.194;2023-03-13T00:15:40;5.23;;;4.77;;
5951;SDS011;3001;42.622;23.194;2023-03-13T00:18:07;4.30;;;4.00;;
5951;SDS011;3001;42.622;23.194;2023-03-13T00:20:34;4.90;;;3.87;;
5951;SDS011;3001;42.622;23.194;2023-03-13T00:23:02;4.30;;;3.90;;
5951;SDS011;3001;42.622;23.194;2023-03-13T00:25:28;5.17;;;3.83;;
5951;SDS011;3001;42.622;23.194;2023-03-13T00:27:55;4.07;;;3.70;;
5951;SDS011;3001;42.622;23.194;2023-03-13T00:30:22;3.50;;;3.20;;
5951;SDS011;3001;42.622;23.194;2023-03-13T00:32:49;4.23;;;2.53;;
5951;SDS011;3001;42.622;23.194;2023-03-13T00:35:15;3.20;;;3.00;;
5951;SDS011;3001;42.622;23.194;2023-03-13T00:37:42;2.77;;;2.57;;
5951;SDS011;3001;42.622;23.194;2023-03-13T00:40:10;2.73;;;2.53;;
5951;SDS011;3001;42.622;23.194;2023-03-13T00:42:37;3.70;;;2.90;;
5951;SDS011;3001;42.622;23.194;2023-03-13T00:45:04;3.20;;;2.93;;
5951;SDS011;3001;42.622;23.194;2023-03-13T00:47:32;3.60;;;2.60;;
5951;SDS011;3001;42.622;23.194;2023-03-13T00:49:58;3.03;;;2.83;;
5951;SDS011;3001;42.622;23.194;2023-03-13T00:52:25;3.03;;;2.83;;
5951;SDS011;3001;42.622;23.194;2023-03-13T00:54:52;2.50;;;2.30;;
5951;SDS011;3001;42.622;23.194;2023-03-13T00:57:21;2.20;;;2.10;;
5951;SDS011;3001;42.622;23.194;2023-03-13T00:59:47;2.40;;;2.30;;
5951;SDS011;3001;42.622;23.194;2023-03-13T01:02:14;3.87;;;3.30;;
5951;SDS011;3001;42.622;23.194;2023-03-13T01:04:40;4.33;;;3.90;;
5951;SDS011;3001;42.622;23.194;2023-03-13T01:07:07;6.07;;;5.33;;
5951;SDS011;3001;42.622;23.194;2023-03-13T01:09:34;6.63;;;5.40;;
5951;SDS011;3001;42.622;23.194;2023-03-13T01:12:00;3.77;;;3.47;;
5951;SDS011;3001;42.622;23.194;2023-03-13T01:14:28;4.40;;;4.00;;
5951;SDS011;3001;42.622;23.194;2023-03-13T01:16:55;3.13;;;2.93;;
5951;SDS011;3001;42.622;23.194;2023-03-13T01:19:22;2.97;;;2.77;;
5951;SDS011;3001;42.622;23.194;2023-03-13T01:21:48;3.07;;;2.77;;
5951;SDS011;3001;42.622;23.194;2023-03-13T01:24:15;3.23;;;3.03;;
5951;SDS011;3001;42.622;23.194;2023-03-13T01:26:43;3.73;;;3.43;;
5951;SDS011;3001;42.622;23.194;2023-03-13T01:29:09;4.23;;;3.93;;
5951;SDS011;3001;42.622;23.194;2023-03-13T01:31:37;3.53;;;3.23;;
5951;SDS011;3001;42.622;23.194;2023-03-13T01:34:04;3.90;;;3.60;;
5951;SDS011;3001;42.622;23.194;2023-03-13T01:36:32;3.47;;;3.17;;
5951;SDS011;3001;42.622;23.194;2023-03-13T01:39:00;4.17;;;3.60;;
5951;SDS011;3001;42.622;23.194;2023-03-13T01:41:27;3.17;;;2.97;;
5951;SDS011;3001;42.622;23.194;2023-03-13T01:43:55;3.27;;;3.07;;
5951;SDS011;3001;42.622;23.194;2023-03-13T01:46:22;3.13;;;2.83;;
5951;SDS011;3001;42.622;23.194;2023-03-13T01:48:53;2.73;;;2.53;;
5951;SDS011;3001;42.622;23.194;2023-03-13T01:51:26;3.10;;;2.80;;
5951;SDS011;3001;42.622;23.194;2023-03-13T01:53:56;2.37;;;2.00;;
5951;SDS011;3001;42.622;23.194;2023-03-13T01:56:31;2.10;;;2.00;;
5951;SDS011;3001;42.622;23.194;2023-03-13T01:59:03;1.90;;;1.80;;
5951;SDS011;3001;42.622;23.194;2023-03-13T02:01:31;2.00;;;1.90;;
5951;SDS011;3001;42.622;23.194;2023-03-13T02:04:00;2.07;;;1.97;;
5951;SDS011;3001;42.622;23.194;2023-03-13T02:06:27;2.63;;;2.43;;
5951;SDS011;3001;42.622;23.194;2023-03-13T02:08:57;2.10;;;2.00;;
5951;SDS011;3001;42.622;23.194;2023-03-13T02:11:30;2.47;;;2.30;;
5951;SDS011;3001;42.622;23.194;2023-03-13T02:14:04;2.57;;;2.37;;
5951;SDS011;3001;42.622;23.194;2023-03-13T02:16:32;2.60;;;2.50;;
5951;SDS011;3001;42.622;23.194;2023-03-13T02:19:02;3.30;;;3.10;;
5951;SDS011;3001;42.622;23.194;2023-03-13T02:21:41;9.57;;;3.43;;
5951;SDS011;3001;42.622;23.194;2023-03-13T02:24:14;4.10;;;3.80;;
5951;SDS011;3001;42.622;23.194;2023-03-13T02:26:52;4.90;;;3.90;;
5951;SDS011;3001;42.622;23.194;2023-03-13T02:29:19;4.13;;;3.83;;
5951;SDS011;3001;42.622;23.194;2023-03-13T02:31:46;3.70;;;3.50;;
5951;SDS011;3001;42.622;23.194;2023-03-13T02:34:14;3.23;;;3.03;;
5951;SDS011;3001;42.622;23.194;2023-03-13T02:36:44;2.20;;;2.03;;
5951;SDS011;3001;42.622;23.194;2023-03-13T02:39:12;2.20;;;2.00;;
5951;SDS011;3001;42.622;23.194;2023-03-13T02:41:42;2.00;;;1.83;;
5951;SDS011;3001;42.622;23.194;2023-03-13T02:44:12;1.70;;;1.60;;
5951;SDS011;3001;42.622;23.194;2023-03-13T02:46:42;2.13;;;2.03;;
5951;SDS011;3001;42.622;23.194;2023-03-13T02:49:22;2.23;;;1.70;;
5951;SDS011;3001;42.622;23.194;2023-03-13T02:51:51;3.43;;;1.50;;
5951;SDS011;3001;42.622;23.194;2023-03-13T02:54:20;2.30;;;2.20;;
5951;SDS011;3001;42.622;23.194;2023-03-13T02:56:49;1.83;;;1.73;;
5951;SDS011;3001;42.622;23.194;2023-03-13T02:59:20;1.67;;;1.57;;
5951;SDS011;3001;42.622;23.194;2023-03-13T03:01:47;2.20;;;2.10;;
5951;SDS011;3001;42.622;23.194;2023-03-13T03:04:16;3.10;;;2.90;;
5951;SDS011;3001;42.622;23.194;2023-03-13T03:06:44;3.20;;;3.00;;
5951;SDS011;3001;42.622;23.194;2023-03-13T03:09:10;3.30;;;3.07;;
5951;SDS011;3001;42.622;23.194;2023-03-13T03:11:37;3.40;;;3.10;;
5951;SDS011;3001;42.622;23.194;2023-03-13T03:14:04;3.20;;;3.00;;
5951;SDS011;3001;42.622;23.194;2023-03-13T03:16:32;4.77;;;4.37;;
5951;SDS011;3001;42.622;23.194;2023-03-13T03:18:59;4.20;;;3.90;;
5951;SDS011;3001;42.622;23.194;2023-03-13T03:21:25;7.83;;;4.10;;
5951;SDS011;3001;42.622;23.194;2023-03-13T03:23:52;4.40;;;4.00;;
5951;SDS011;3001;42.622;23.194;2023-03-13T03:26:19;3.93;;;3.67;;
5951;SDS011;3001;42.622;23.194;2023-03-13T03:28:46;3.77;;;3.47;;
5951;SDS011;3001;42.622;23.194;2023-03-13T03:31:13;4.70;;;3.70;;
5951;SDS011;3001;42.622;23.194;2023-03-13T03:33:42;3.13;;;2.93;;
5951;SDS011;3001;42.622;23.194;2023-03-13T03:36:10;3.43;;;3.13;;
5951;SDS011;3001;42.622;23.194;2023-03-13T03:38:38;2.10;;;2.00;;
5951;SDS011;3001;42.622;23.194;2023-03-13T03:41:06;1.60;;;1.50;;
5951;SDS011;3001;42.622;23.194;2023-03-13T03:43:34;2.00;;;1.80;;
5951;SDS011;3001;42.622;23.194;2023-03-13T03:46:01;2.37;;;2.17;;
5951;SDS011;3001;42.622;23.194;2023-03-13T03:48:28;3.13;;;2.83;;
5951;SDS011;3001;42.622;23.194;2023-03-13T03:50:56;5.30;;;4.83;;
5951;SDS011;3001;42.622;23.194;2023-03-13T03:53:23;5.73;;;5.13;;
5951;SDS011;3001;42.622;23.194;2023-03-13T03:55:49;6.53;;;5.83;;
5951;SDS011;3001;42.622;23.194;2023-03-13T03:58:16;6.27;;;5.60;;
5951;SDS011;3001;42.622;23.194;2023-03-13T04:00:43;6.47;;;5.73;;
5951;SDS011;3001;42.622;23.194;2023-03-13T04:03:10;6.37;;;5.77;;
5951;SDS011;3001;42.622;23.194;2023-03-13T04:05:37;6.03;;;5.47;;
5951;SDS011;3001;42.622;23.194;2023-03-13T04:08:06;7.57;;;5.73;;
5951;SDS011;3001;42.622;23.194;2023-03-13T04:10:33;6.53;;;5.33;;
5951;SDS011;3001;42.622;23.194;2023-03-13T04:13:00;5.90;;;5.00;;
5951;SDS011;3001;42.622;23.194;2023-03-13T04:15:26;5.97;;;5.17;;
5951;SDS011;3001;42.622;23.194;2023-03-13T04:17:53;4.30;;;3.97;;
5951;SDS011;3001;42.622;23.194;2023-03-13T04:20:20;3.70;;;3.50;;
5951;SDS011;3001;42.622;23.194;2023-03-13T04:22:46;4.17;;;3.40;;
5951;SDS011;3001;42.622;23.194;2023-03-13T04:25:14;3.73;;;3.43;;
5951;SDS011;3001;42.622;23.194;2023-03-13T04:27:41;3.03;;;2.83;;
5951;SDS011;3001;42.622;23.194;2023-03-13T04:30:08;2.27;;;2.17;;
5951;SDS011;3001;42.622;23.194;2023-03-13T04:32:36;2.60;;;2.50;;
5951;SDS011;3001;42.622;23.194;2023-03-13T04:35:02;2.40;;;2.30;;
5951;SDS011;3001;42.622;23.194;2023-03-13T04:37:30;2.40;;;2.20;;
5951;SDS011;3001;42.622;23.194;2023-03-13T04:39:56;2.77;;;2.57;;
5951;SDS011;3001;42.622;23.194;2023-03-13T04:42:24;3.27;;;2.97;;
5951;SDS011;3001;42.622;23.194;2023-03-13T04:44:51;2.50;;;2.30;;
5951;SDS011;3001;42.622;23.194;2023-03-13T04:47:18;3.53;;;2.73;;
5951;SDS011;3001;42.622;23.194;2023-03-13T04:49:45;2.67;;;2.53;;
5951;SDS011;3001;42.622;23.194;2023-03-13T04:52:11;3.47;;;2.90;;
5951;SDS011;3001;42.622;23.194;2023-03-13T04:54:38;3.33;;;3.13;;
5951;SDS011;3001;42.622;23.194;2023-03-13T04:57:04;4.73;;;3.13;;
5951;SDS011;3001;42.622;23.194;2023-03-13T04:59:33;2.80;;;2.60;;
5951;SDS011;3001;42.622;23.194;2023-03-13T05:01:59;23.53;;;14.47;;
5951;SDS011;3001;42.622;23.194;2023-03-13T05:04:26;16.37;;;10.97;;
5951;SDS011;3001;42.622;23.194;2023-03-13T05:06:52;25.30;;;14.63;;
5951;SDS011;3001;42.622;23.194;2023-03-13T05:09:19;30.23;;;18.47;;
5951;SDS011;3001;42.622;23.194;2023-03-13T05:11:46;6.20;;;5.70;;
5951;SDS011;3001;42.622;23.194;2023-03-13T05:14:14;3.43;;;3.23;;
5951;SDS011;3001;42.622;23.194;2023-03-13T05:16:42;4.20;;;3.90;;
5951;SDS011;3001;42.622;23.194;2023-03-13T05:19:09;3.80;;;3.50;;
5951;SDS011;3001;42.622;23.194;2023-03-13T05:21:35;11.33;;;9.93;;
5951;SDS011;3001;42.622;23.194;2023-03-13T05:24:02;15.03;;;11.23;;
5951;SDS011;3001;42.622;23.194;2023-03-13T05:26:29;11.27;;;9.20;;
5951;SDS011;3001;42.622;23.194;2023-03-13T05:28:56;8.27;;;7.43;;
5951;SDS011;3001;42.622;23.194;2023-03-13T05:31:22;10.60;;;7.70;;
5951;SDS011;3001;42.622;23.194;2023-03-13T05:33:50;8.53;;;7.20;;
5951;SDS011;3001;42.622;23.194;2023-03-13T05:36:17;4.63;;;4.23;;
5951;SDS011;3001;42.622;23.194;2023-03-13T05:38:43;3.80;;;3.50;;
5951;SDS011;3001;42.622;23.194;2023-03-13T05:41:10;4.37;;;3.97;;
5951;SDS011;3001;42.622;23.194;2023-03-13T05:43:37;3.63;;;3.43;;
5951;SDS011;3001;42.622;23.194;2023-03-13T05:46:03;4.20;;;3.80;;
5951;SDS011;3001;42.622;23.194;2023-03-13T05:48:30;3.80;;;3.50;;
5951;SDS011;3001;42.622;23.194;2023-03-13T05:50:58;4.10;;;3.67;;
5951;SDS011;3001;42.622;23.194;2023-03-13T05:53:25;3.90;;;3.60;;
5951;SDS011;3001;42.622;23.194;2023-03-13T05:55:51;4.77;;;3.77;;
5951;SDS011;3001;42.622;23.194;2023-03-13T05:58:18;4.20;;;3.90;;
5951;SDS011;3001;42.622;23.194;2023-03-13T06:00:45;4.73;;;3.93;;
5951;SDS011;3001;42.622;23.194;2023-03-13T06:03:12;4.17;;;3.87;;
5951;SDS011;3001;42.622;23.194;2023-03-13T06:05:39;4.70;;;4.30;;
5951;SDS011;3001;42.622;23.194;2023-03-13T06:08:07;5.93;;;4.20;;
5951;SDS011;3001;42.622;23.194;2023-03-13T06:10:34;4.83;;;4.43;;
5951;SDS011;3001;42.622;23.194;2023-03-13T06:13:00;4.30;;;4.00;;
5951;SDS011;3001;42.622;23.194;2023-03-13T06:15:27;4.83;;;4.43;;
5951;SDS011;3001;42.622;23.194;2023-03-13T06:17:54;4.47;;;3.93;;
5951;SDS011;3001;42.622;23.194;2023-03-13T06:20:21;4.63;;;4.23;;
5951;SDS011;3001;42.622;23.194;2023-03-13T06:22:47;4.47;;;4.17;;
5951;SDS011;3001;42.622;23.194;2023-03-13T06:25:15;5.17;;;4.77;;
5951;SDS011;3001;42.622;23.194;2023-03-13T06:27:42;4.77;;;4.17;;
5951;SDS011;3001;42.622;23.194;2023-03-13T06:30:09;5.40;;;4.90;;
5951;SDS011;3001;42.622;23.194;2023-03-13T06:32:37;5.00;;;4.60;;
5951;SDS011;3001;42.622;23.194;2023-03-13T06:35:04;6.07;;;4.07;;
5951;SDS011;3001;42.622;23.194;2023-03-13T06:37:31;5.17;;;4.53;;
5951;SDS011;3001;42.622;23.194;2023-03-13T06:39:58;7.13;;;4.67;;
5951;SDS011;3001;42.622;23.194;2023-03-13T06:42:26;4.93;;;4.63;;
5951;SDS011;3001;42.622;23.194;2023-03-13T06:44:52;4.37;;;4.07;;
5951;SDS011;3001;42.622;23.194;2023-03-13T06:47:19;5.03;;;4.67;;
5951;SDS011;3001;42.622;23.194;2023-03-13T06:49:46;4.60;;;4.20;;
5951;SDS011;3001;42.622;23.194;2023-03-13T06:52:12;6.00;;;4.90;;
5951;SDS011;3001;42.622;23.194;2023-03-13T06:54:39;5.37;;;4.53;;
5951;SDS011;3001;42.622;23.194;2023-03-13T06:57:06;6.30;;;5.80;;
5951;SDS011;3001;42.622;23.194;2023-03-13T06:59:35;5.97;;;5.43;;
5951;SDS011;3001;42.622;23.194;2023-03-13T07:02:03;6.03;;;5.47;;
5951;SDS011;3001;42.622;23.194;2023-03-13T07:04:30;5.83;;;5.33;;
5951;SDS011;3001;42.622;23.194;2023-03-13T07:06:56;5.43;;;5.03;;
5951;SDS011;3001;42.622;23.194;2023-03-13T07:09:23;7.07;;;5.00;;
5951;SDS011;3001;42.622;23.194;2023-03-13T07:11:50;5.30;;;4.73;;
5951;SDS011;3001;42.622;23.194;2023-03-13T07:14:17;5.30;;;4.90;;
5951;SDS011;3001;42.622;23.194;2023-03-13T07:16:45;6.20;;;5.60;;
5951;SDS011;3001;42.622;23.194;2023-03-13T07:19:11;5.87;;;5.43;;
5951;SDS011;3001;42.622;23.194;2023-03-13T07:21:39;4.97;;;4.67;;
5951;SDS011;3001;42.622;23.194;2023-03-13T07:24:06;5.70;;;5.20;;
5951;SDS011;3001;42.622;23.194;2023-03-13T07:26:33;5.20;;;4.80;;
5951;SDS011;3001;42.622;23.194;2023-03-13T07:28:59;5.30;;;4.90;;
5951;SDS011;3001;42.622;23.194;2023-03-13T07:31:26;5.17;;;4.77;;
5951;SDS011;3001;42.622;23.194;2023-03-13T07:33:59;5.87;;;5.30;;
5951;SDS011;3001;42.622;23.194;2023-03-13T07:36:25;5.27;;;4.87;;
5951;SDS011;3001;42.622;23.194;2023-03-13T07:38:52;4.87;;;4.50;;
5951;SDS011;3001;42.622;23.194;2023-03-13T07:41:19;4.73;;;4.43;;
5951;SDS011;3001;42.622;23.194;2023-03-13T07:43:46;4.90;;;4.60;;
5951;SDS011;3001;42.622;23.194;2023-03-13T07:46:13;4.67;;;4.37;;
5951;SDS011;3001;42.622;23.194;2023-03-13T07:48:42;4.57;;;4.27;;
5951;SDS011;3001;42.622;23.194;2023-03-13T07:51:11;4.70;;;4.30;;
5951;SDS011;3001;42.622;23.194;2023-03-13T07:53:40;5.50;;;5.10;;
5951;SDS011;3001;42.622;23.194;2023-03-13T07:56:08;5.33;;;4.43;;
5951;SDS011;3001;42.622;23.194;2023-03-13T07:58:37;4.83;;;4.40;;
5951;SDS011;3001;42.622;23.194;2023-03-13T08:01:08;4.83;;;4.40;;
5951;SDS011;3001;42.622;23.194;2023-03-13T08:03:35;4.80;;;4.50;;
5951;SDS011;3001;42.622;23.194;2023-03-13T08:06:03;5.37;;;4.63;;
5951;SDS011;3001;42.622;23.194;2023-03-13T08:08:32;4.93;;;4.17;;
5951;SDS011;3001;42.622;23.194;2023-03-13T08:10:59;5.10;;;4.70;;
5951;SDS011;3001;42.622;23.194;2023-03-13T08:13:27;5.00;;;4.63;;
5951;SDS011;3001;42.622;23.194;2023-03-13T08:16:00;5.40;;;5.00;;
5951;SDS011;3001;42.622;23.194;2023-03-13T08:18:27;5.43;;;5.03;;
5951;SDS011;3001;42.622;23.194;2023-03-13T08:20:59;8.27;;;5.77;;
5951;SDS011;3001;42.622;23.194;2023-03-13T08:23:26;6.40;;;5.83;;
5951;SDS011;3001;42.622;23.194;2023-03-13T08:25:54;6.03;;;5.63;;
5951;SDS011;3001;42.622;23.194;2023-03-13T08:28:21;5.70;;;5.27;;
5951;SDS011;3001;42.622;23.194;2023-03-13T08:30:48;8.37;;;6.23;;
5951;SDS011;3001;42.622;23.194;2023-03-13T08:33:14;6.23;;;5.73;;
5951;SDS011;3001;42.622;23.194;2023-03-13T08:35:41;6.57;;;6.07;;
5951;SDS011;3001;42.622;23.194;2023-03-13T08:38:08;6.63;;;6.13;;
5951;SDS011;3001;42.622;23.194;2023-03-13T08:40:34;5.70;;;5.30;;
5951;SDS011;3001;42.622;23.194;2023-03-13T08:43:02;6.93;;;6.43;;
5951;SDS011;3001;42.622;23.194;2023-03-13T08:45:29;7.97;;;6.00;;
5951;SDS011;3001;42.622;23.194;2023-03-13T08:47:56;7.40;;;6.77;;
5951;SDS011;3001;42.622;23.194;2023-03-13T08:50:22;7.10;;;6.60;;
5951;SDS011;3001;42.622;23.194;2023-03-13T08:52:49;7.43;;;6.83;;
5951;SDS011;3001;42.622;23.194;2023-03-13T08:55:16;6.70;;;6.10;;
5951;SDS011;3001;42.622;23.194;2023-03-13T08:57:43;10.00;;;6.47;;
5951;SDS011;3001;42.622;23.194;2023-03-13T09:00:12;7.53;;;6.83;;
5951;SDS011;3001;42.622;23.194;2023-03-13T09:02:39;5.93;;;5.53;;
5951;SDS011;3001;42.622;23.194;2023-03-13T09:05:06;6.53;;;6.10;;
5951;SDS011;3001;42.622;23.194;2023-03-13T09:07:33;6.10;;;5.60;;
5951;SDS011;3001;42.622;23.194;2023-03-13T09:10:00;6.00;;;5.50;;
5951;SDS011;3001;42.622;23.194;2023-03-13T09:12:26;7.23;;;6.53;;
5951;SDS011;3001;42.622;23.194;2023-03-13T09:14:54;6.10;;;5.70;;
5951;SDS011;3001;42.622;23.194;2023-03-13T09:17:22;6.40;;;5.80;;
5951;SDS011;3001;42.622;23.194;2023-03-13T09:19:50;6.53;;;6.07;;
5951;SDS011;3001;42.622;23.194;2023-03-13T09:22:17;6.47;;;5.90;;
5951;SDS011;3001;42.622;23.194;2023-03-13T09:24:43;7.30;;;6.60;;
5951;SDS011;3001;42.622;23.194;2023-03-13T09:27:10;8.53;;;7.83;;
5951;SDS011;3001;42.622;23.194;2023-03-13T09:29:36;18.33;;;13.83;;
5951;SDS011;3001;42.622;23.194;2023-03-13T09:32:05;6.50;;;6.10;;
5951;SDS011;3001;42.622;23.194;2023-03-13T09:34:34;6.13;;;5.77;;
5951;SDS011;3001;42.622;23.194;2023-03-13T09:37:00;7.23;;;6.63;;
5951;SDS011;3001;42.622;23.194;2023-03-13T09:39:27;6.63;;;5.87;;
5951;SDS011;3001;42.622;23.194;2023-03-13T09:41:56;7.83;;;6.33;;
5951;SDS011;3001;42.622;23.194;2023-03-13T09:44:30;7.83;;;6.90;;
5951;SDS011;3001;42.622;23.194;2023-03-13T09:47:04;9.40;;;8.50;;
5951;SDS011;3001;42.622;23.194;2023-03-13T09:49:38;6.37;;;5.80;;
5951;SDS011;3001;42.622;23.194;2023-03-13T09:52:13;7.17;;;5.40;;
5951;SDS011;3001;42.622;23.194;2023-03-13T09:54:43;7.27;;;5.80;;
5951;SDS011;3001;42.622;23.194;2023-03-13T09:57:14;15.60;;;10.20;;
5951;SDS011;3001;42.622;23.194;2023-03-13T09:59:50;6.17;;;5.57;;
5951;SDS011;3001;42.622;23.194;2023-03-13T10:02:22;7.63;;;6.83;;
5951;SDS011;3001;42.622;23.194;2023-03-13T10:04:56;13.57;;;9.43;;
5951;SDS011;3001;42.622;23.194;2023-03-13T10:07:30;9.93;;;5.43;;
5951;SDS011;3001;42.622;23.194;2023-03-13T10:09:57;5.37;;;4.97;;
5951;SDS011;3001;42.622;23.194;2023-03-13T10:12:27;5.53;;;4.87;;
5951;SDS011;3001;42.622;23.194;2023-03-13T10:15:05;5.00;;;4.70;;
5951;SDS011;3001;42.622;23.194;2023-03-13T10:17:44;11.20;;;9.27;;
5951;SDS011;3001;42.622;23.194;2023-03-13T10:20:20;7.93;;;7.37;;
5951;SDS011;3001;42.622;23.194;2023-03-13T10:22:49;6.07;;;4.80;;
5951;SDS011;3001;42.622;23.194;2023-03-13T10:25:22;4.50;;;4.20;;
5951;SDS011;3001;42.622;23.194;2023-03-13T10:27:54;5.50;;;5.10;;
5951;SDS011;3001;42.622;23.194;2023-03-13T10:30:22;7.03;;;5.47;;
5951;SDS011;3001;42.622;23.194;2023-03-13T10:32:52;6.27;;;5.70;;
5951;SDS011;3001;42.622;23.194;2023-03-13T10:35:24;7.40;;;6.43;;
5951;SDS011;3001;42.622;23.194;2023-03-13T10:37:59;7.83;;;6.67;;
5951;SDS011;3001;42.622;23.194;2023-03-13T10:40:29;8.03;;;7.27;;
5951;SDS011;3001;42.622;23.194;2023-03-13T10:42:59;3.57;;;3.37;;
5951;SDS011;3001;42.622;23.194;2023-03-13T10:45:31;4.20;;;3.90;;
5951;SDS011;3001;42.622;23.194;2023-03-13T10:48:00;4.10;;;3.90;;
5951;SDS011;3001;42.622;23.194;2023-03-13T10:50:32;4.40;;;4.00;;
5951;SDS011;3001;42.622;23.194;2023-03-13T10:53:09;5.03;;;4.73;;
5951;SDS011;3001;42.622;23.194;2023-03-13T10:55:47;4.00;;;3.80;;
5951;SDS011;3001;42.622;23.194;2023-03-13T10:58:16;5.00;;;4.70;;
5951;SDS011;3001;42.622;23.194;2023-03-13T11:00:46;8.53;;;7.77;;
5951;SDS011;3001;42.622;23.194;2023-03-13T11:03:14;3.83;;;3.63;;
5951;SDS011;3001;42.622;23.194;2023-03-13T11:05:45;4.17;;;3.83;;
5951;SDS011;3001;42.622;23.194;2023-03-13T11:08:21;9.60;;;6.77;;
5951;SDS011;3001;42.622;23.194;2023-03-13T11:10:51;6.30;;;5.03;;
5951;SDS011;3001;42.622;23.194;2023-03-13T11:13:27;4.20;;;3.90;;
5951;SDS011;3001;42.622;23.194;2023-03-13T11:16:12;5.27;;;4.87;;
5951;SDS011;3001;42.622;23.194;2023-03-13T11:18:48;4.63;;;4.33;;
5951;SDS011;3001;42.622;23.194;2023-03-13T11:21:32;5.27;;;4.87;;
5951;SDS011;3001;42.622;23.194;2023-03-13T11:24:09;9.07;;;8.10;;
5951;SDS011;3001;42.622;23.194;2023-03-13T11:26:41;10.50;;;9.60;;
5951;SDS011;3001;42.622;23.194;2023-03-13T11:29:15;7.33;;;5.97;;
5951;SDS011;3001;42.622;23.194;2023-03-13T11:31:50;5.67;;;4.67;;
5951;SDS011;3001;42.622;23.194;2023-03-13T11:34:22;5.47;;;5.07;;
5951;SDS011;3001;42.622;23.194;2023-03-13T11:36:54;4.00;;;3.80;;
5951;SDS011;3001;42.622;23.194;2023-03-13T11:39:33;4.23;;;3.93;;
5951;SDS011;3001;42.622;23.194;2023-03-13T11:42:10;5.43;;;5.10;;
5951;SDS011;3001;42.622;23.194;2023-03-13T11:44:55;6.47;;;5.83;;
5951;SDS011;3001;42.622;23.194;2023-03-13T11:47:31;6.77;;;6.27;;
5951;SDS011;3001;42.622;23.194;2023-03-13T11:50:12;5.77;;;5.27;;
5951;SDS011;3001;42.622;23.194;2023-03-13T11:52:51;10.93;;;8.23;;
5951;SDS011;3001;42.622;23.194;2023-03-13T11:58:29;7.43;;;5.70;;
5951;SDS011;3001;42.622;23.194;2023-03-13T12:01:04;7.17;;;6.17;;
5951;SDS011;3001;42.622;23.194;2023-03-13T12:03:35;9.67;;;8.57;;
5951;SDS011;3001;42.622;23.194;2023-03-13T12:06:10;6.17;;;5.20;;
5951;SDS011;3001;42.622;23.194;2023-03-13T12:08:48;5.70;;;5.30;;
5951;SDS011;3001;42.622;23.194;2023-03-13T12:11:21;5.17;;;4.87;;
5951;SDS011;3001;42.622;23.194;2023-03-13T12:13:53;5.63;;;5.23;;
5951;SDS011;3001;42.622;23.194;2023-03-13T12:16:24;8.53;;;7.80;;
5951;SDS011;3001;42.622;23.194;2023-03-13T12:18:58;8.30;;;7.60;;
5951;SDS011;3001;42.622;23.194;2023-03-13T12:21:27;7.90;;;7.23;;
5951;SDS011;3001;42.622;23.194;2023-03-13T12:23:59;7.37;;;6.87;;
5951;SDS011;3001;42.622;23.194;2023-03-13T12:26:36;6.77;;;6.10;;
5951;SDS011;3001;42.622;23.194;2023-03-13T12:29:07;8.47;;;7.97;;
5951;SDS011;3001;42.622;23.194;2023-03-13T12:31:42;9.90;;;9.10;;
5951;SDS011;3001;42.622;23.194;2023-03-13T12:34:17;10.27;;;9.00;;
5951;SDS011;3001;42.622;23.194;2023-03-13T12:36:47;8.10;;;7.50;;
5951;SDS011;3001;42.622;23.194;2023-03-13T12:39:21;8.53;;;7.93;;
5951;SDS011;3001;42.622;23.194;2023-03-13T12:41:59;8.80;;;8.00;;
5951;SDS011;3001;42.622;23.194;2023-03-13T12:44:35;8.30;;;7.70;;
5951;SDS011;3001;42.622;23.194;2023-03-13T12:47:06;9.50;;;8.70;;
5951;SDS011;3001;42.622;23.194;2023-03-13T12:55:56;11.77;;;10.60;;
5951;SDS011;3001;42.622;23.194;2023-03-13T12:58:39;11.83;;;10.77;;
5951;SDS011;3001;42.622;23.194;2023-03-13T13:01:12;13.13;;;11.97;;
5951;SDS011;3001;42.622;23.194;2023-03-13T13:03:48;12.87;;;11.13;;
5951;SDS011;3001;42.622;23.194;2023-03-13T13:06:18;11.83;;;10.83;;
5951;SDS011;3001;42.622;23.194;2023-03-13T13:08:46;13.23;;;11.43;;
5951;SDS011;3001;42.622;23.194;2023-03-13T13:17:30;13.60;;;10.67;;
5951;SDS011;3001;42.622;23.194;2023-03-13T13:22:55;11.63;;;10.70;;
5951;SDS011;3001;42.622;23.194;2023-03-13T13:25:41;12.93;;;11.67;;
5951;SDS011;3001;42.622;23.194;2023-03-13T13:28:20;12.60;;;11.13;;
5951;SDS011;3001;42.622;23.194;2023-03-13T13:30:53;12.50;;;11.33;;
5951;SDS011;3001;42.622;23.194;2023-03-13T13:33:33;12.53;;;11.53;;
5951;SDS011;3001;42.622;23.194;2023-03-13T13:41:58;12.77;;;11.57;;
5951;SDS011;3001;42.622;23.194;2023-03-13T13:44:25;11.17;;;10.37;;
5951;SDS011;3001;42.622;23.194;2023-03-13T13:46:55;12.73;;;11.07;;
5951;SDS011;3001;42.622;23.194;2023-03-13T13:49:35;11.90;;;10.70;;
5951;SDS011;3001;42.622;23.194;2023-03-13T13:58:10;12.57;;;11.27;;
5951;SDS011;3001;42.622;23.194;2023-03-13T14:00:39;11.70;;;10.90;;
5951;SDS011;3001;42.622;23.194;2023-03-13T14:03:19;13.00;;;11.80;;
5951;SDS011;3001;42.622;23.194;2023-03-13T14:05:47;13.27;;;11.87;;
5951;SDS011;3001;42.622;23.194;2023-03-13T14:08:19;15.13;;;11.67;;
5951;SDS011;3001;42.622;23.194;2023-03-13T14:10:50;14.97;;;11.83;;
5951;SDS011;3001;42.622;23.194;2023-03-13T14:13:20;13.77;;;12.63;;
5951;SDS011;3001;42.622;23.194;2023-03-13T14:15:49;14.70;;;12.27;;
5951;SDS011;3001;42.622;23.194;2023-03-13T14:18:22;13.50;;;12.30;;
5951;SDS011;3001;42.622;23.194;2023-03-13T14:20:51;16.77;;;11.50;;
5951;SDS011;3001;42.622;23.194;2023-03-13T14:23:34;13.50;;;12.20;;
5951;SDS011;3001;42.622;23.194;2023-03-13T14:26:10;18.10;;;13.13;;
5951;SDS011;3001;42.622;23.194;2023-03-13T14:28:39;14.40;;;13.03;;
5951;SDS011;3001;42.622;23.194;2023-03-13T14:31:07;15.60;;;13.97;;
5951;SDS011;3001;42.622;23.194;2023-03-13T14:33:37;14.77;;;12.53;;
5951;SDS011;3001;42.622;23.194;2023-03-13T14:36:04;15.73;;;13.87;;
5951;SDS011;3001;42.622;23.194;2023-03-13T14:38:31;20.53;;;13.53;;
5951;SDS011;3001;42.622;23.194;2023-03-13T14:40:58;16.60;;;14.00;;
5951;SDS011;3001;42.622;23.194;2023-03-13T14:43:28;15.00;;;13.37;;
5951;SDS011;3001;42.622;23.194;2023-03-13T14:45:58;15.03;;;13.33;;
5951;SDS011;3001;42.622;23.194;2023-03-13T14:48:26;15.27;;;13.70;;
5951;SDS011;3001;42.622;23.194;2023-03-13T14:51:01;19.07;;;13.50;;
5951;SDS011;3001;42.622;23.194;2023-03-13T14:53:33;15.20;;;13.77;;
5951;SDS011;3001;42.622;23.194;2023-03-13T14:56:10;15.77;;;12.67;;
5951;SDS011;3001;42.622;23.194;2023-03-13T14:58:38;13.90;;;12.60;;
5951;SDS011;3001;42.622;23.194;2023-03-13T15:01:13;16.07;;;13.07;;
5951;SDS011;3001;42.622;23.194;2023-03-13T15:03:48;17.00;;;13.33;;
5951;SDS011;3001;42.622;23.194;2023-03-13T15:06:21;18.80;;;14.10;;
5951;SDS011;3001;42.622;23.194;2023-03-13T15:08:50;14.97;;;13.67;;
5951;SDS011;3001;42.622;23.194;2023-03-13T15:11:40;15.87;;;13.87;;
5951;SDS011;3001;42.622;23.194;2023-03-13T15:16:58;13.80;;;12.60;;
5951;SDS011;3001;42.622;23.194;2023-03-13T15:19:25;14.40;;;12.93;;
5951;SDS011;3001;42.622;23.194;2023-03-13T15:21:53;16.73;;;13.73;;
5951;SDS011;3001;42.622;23.194;2023-03-13T15:24:20;16.90;;;13.43;;
5951;SDS011;3001;42.622;23.194;2023-03-13T15:26:46;15.10;;;13.77;;
5951;SDS011;3001;42.622;23.194;2023-03-13T15:29:13;17.17;;;14.07;;
5951;SDS011;3001;42.622;23.194;2023-03-13T15:31:42;15.00;;;13.33;;
5951;SDS011;3001;42.622;23.194;2023-03-13T15:34:09;17.70;;;14.87;;
5951;SDS011;3001;42.622;23.194;2023-03-13T15:36:38;21.83;;;15.27;;
5951;SDS011;3001;42.622;23.194;2023-03-13T15:39:09;17.80;;;14.87;;
5951;SDS011;3001;42.622;23.194;2023-03-13T15:41:39;17.87;;;14.60;;